sensor_id;sensor_type;location;lat;lon;timestamp;P1;durP1;ratioP1;P2;durP2;ratioP2
2748;SDS011;1382;52.142;11.618;2022-09-09T00:02:10;4.30;;;3.20;;
2748;SDS011;1382;52.142;11.618;2022-09-09T00:04:44;9.07;;;4.60;;
2748;SDS011;1382;52.142;11.618;2022-09-09T00:07:16;3.90;;;3.30;;
2748;SDS011;1382;52.142;11.618;2022-09-09T00:09:50;3.30;;;3.00;;
2748;SDS011;1382;52.142;11.618;2022-09-09T00:12:27;4.00;;;3.00;;
2748;SDS011;1382;52.142;11.618;2022-09-09T00:15:02;5.17;;;4.17;;
2748;SDS011;1382;52.142;11.618;2022-09-09T00:17:35;5.77;;;4.50;;
2748;SDS011;1382;52.142;11.618;2022-09-09T00:20:09;7.07;;;4.20;;
2748;SDS011;1382;52.142;11.618;2022-09-09T00:22:40;5.70;;;3.87;;
2748;SDS011;1382;52.142;11.618;2022-09-09T00:25:14;5.83;;;4.70;;
2748;SDS011;1382;52.142;11.618;2022-09-09T00:27:45;5.17;;;4.67;;
2748;SDS011;1382;52.142;11.618;2022-09-09T00:30:15;7.20;;;4.30;;
2748;SDS011;1382;52.142;11.618;2022-09-09T00:32:43;5.40;;;3.37;;
2748;SDS011;1382;52.142;11.618;2022-09-09T00:35:14;3.37;;;3.10;;
2748;SDS011;1382;52.142;11.618;2022-09-09T00:37:43;4.30;;;3.60;;
2748;SDS011;1382;52.142;11.618;2022-09-09T00:40:18;4.97;;;2.57;;
2748;SDS011;1382;52.142;11.618;2022-09-09T00:42:51;3.80;;;2.50;;
2748;SDS011;1382;52.142;11.618;2022-09-09T00:45:38;2.60;;;1.80;;
2748;SDS011;1382;52.142;11.618;2022-09-09T00:48:21;2.40;;;2.20;;
2748;SDS011;1382;52.142;11.618;2022-09-09T00:50:57;2.27;;;2.07;;
2748;SDS011;1382;52.142;11.618;2022-09-09T00:53:31;2.70;;;2.40;;
2748;SDS011;1382;52.142;11.618;2022-09-09T00:56:09;3.70;;;2.17;;
2748;SDS011;1382;52.142;11.618;2022-09-09T00:58:39;3.90;;;2.20;;
2748;SDS011;1382;52.142;11.618;2022-09-09T01:01:09;6.27;;;2.30;;
2748;SDS011;1382;52.142;11.618;2022-09-09T01:03:38;2.10;;;1.73;;
2748;SDS011;1382;52.142;11.618;2022-09-09T01:06:18;3.70;;;2.33;;
2748;SDS011;1382;52.142;11.618;2022-09-09T01:11:41;4.37;;;3.00;;
2748;SDS011;1382;52.142;11.618;2022-09-09T01:14:19;4.90;;;2.60;;
2748;SDS011;1382;52.142;11.618;2022-09-09T01:16:56;3.73;;;2.67;;
2748;SDS011;1382;52.142;11.618;2022-09-09T01:19:27;3.30;;;2.73;;
2748;SDS011;1382;52.142;11.618;2022-09-09T01:22:08;2.57;;;2.37;;
2748;SDS011;1382;52.142;11.618;2022-09-09T01:24:38;2.57;;;2.37;;
2748;SDS011;1382;52.142;11.618;2022-09-09T01:27:14;3.13;;;2.37;;
2748;SDS011;1382;52.142;11.618;2022-09-09T01:29:43;4.50;;;2.43;;
2748;SDS011;1382;52.142;11.618;2022-09-09T01:35:05;2.93;;;2.43;;
2748;SDS011;1382;52.142;11.618;2022-09-09T01:37:36;3.37;;;2.50;;
2748;SDS011;1382;52.142;11.618;2022-09-09T01:40:03;4.53;;;2.20;;
2748;SDS011;1382;52.142;11.618;2022-09-09T01:42:31;1.83;;;1.60;;
2748;SDS011;1382;52.142;11.618;2022-09-09T01:44:58;2.10;;;1.90;;
2748;SDS011;1382;52.142;11.618;2022-09-09T01:47:25;3.70;;;2.30;;
2748;SDS011;1382;52.142;11.618;2022-09-09T01:49:52;4.80;;;3.30;;
2748;SDS011;1382;52.142;11.618;2022-09-09T01:52:19;4.03;;;2.60;;
2748;SDS011;1382;52.142;11.618;2022-09-09T01:54:46;2.40;;;2.17;;
2748;SDS011;1382;52.142;11.618;2022-09-09T01:57:15;2.00;;;1.70;;
2748;SDS011;1382;52.142;11.618;2022-09-09T01:59:50;3.23;;;2.63;;
2748;SDS011;1382;52.142;11.618;2022-09-09T02:02:29;3.10;;;1.83;;
2748;SDS011;1382;52.142;11.618;2022-09-09T02:05:01;2.03;;;1.77;;
2748;SDS011;1382;52.142;11.618;2022-09-09T02:07:37;2.10;;;1.70;;
2748;SDS011;1382;52.142;11.618;2022-09-09T02:10:08;3.50;;;1.83;;
2748;SDS011;1382;52.142;11.618;2022-09-09T02:12:38;2.00;;;1.43;;
2748;SDS011;1382;52.142;11.618;2022-09-09T02:15:14;2.37;;;1.60;;
2748;SDS011;1382;52.142;11.618;2022-09-09T02:17:46;3.57;;;1.30;;
2748;SDS011;1382;52.142;11.618;2022-09-09T02:20:17;1.50;;;1.10;;
2748;SDS011;1382;52.142;11.618;2022-09-09T02:22:46;3.60;;;1.67;;
2748;SDS011;1382;52.142;11.618;2022-09-09T02:25:17;4.90;;;1.30;;
2748;SDS011;1382;52.142;11.618;2022-09-09T02:27:47;2.13;;;1.60;;
2748;SDS011;1382;52.142;11.618;2022-09-09T02:30:17;2.23;;;1.30;;
2748;SDS011;1382;52.142;11.618;2022-09-09T02:32:45;3.90;;;1.37;;
2748;SDS011;1382;52.142;11.618;2022-09-09T02:35:15;1.70;;;1.33;;
2748;SDS011;1382;52.142;11.618;2022-09-09T02:37:45;1.63;;;1.50;;
2748;SDS011;1382;52.142;11.618;2022-09-09T02:40:13;2.17;;;1.50;;
2748;SDS011;1382;52.142;11.618;2022-09-09T02:42:41;2.43;;;1.40;;
2748;SDS011;1382;52.142;11.618;2022-09-09T02:45:09;2.33;;;1.40;;
2748;SDS011;1382;52.142;11.618;2022-09-09T02:47:41;3.33;;;1.37;;
2748;SDS011;1382;52.142;11.618;2022-09-09T02:50:12;1.87;;;1.50;;
2748;SDS011;1382;52.142;11.618;2022-09-09T02:52:47;3.73;;;1.20;;
2748;SDS011;1382;52.142;11.618;2022-09-09T02:55:27;1.60;;;1.13;;
2748;SDS011;1382;52.142;11.618;2022-09-09T02:58:01;3.23;;;1.20;;
2748;SDS011;1382;52.142;11.618;2022-09-09T03:00:30;1.50;;;1.10;;
2748;SDS011;1382;52.142;11.618;2022-09-09T03:02:58;1.30;;;1.20;;
2748;SDS011;1382;52.142;11.618;2022-09-09T03:05:25;3.30;;;0.93;;
2748;SDS011;1382;52.142;11.618;2022-09-09T03:07:52;1.60;;;1.50;;
2748;SDS011;1382;52.142;11.618;2022-09-09T03:10:19;4.67;;;2.17;;
2748;SDS011;1382;52.142;11.618;2022-09-09T03:12:46;3.53;;;1.57;;
2748;SDS011;1382;52.142;11.618;2022-09-09T03:15:13;3.43;;;1.30;;
2748;SDS011;1382;52.142;11.618;2022-09-09T03:17:40;4.30;;;1.77;;
2748;SDS011;1382;52.142;11.618;2022-09-09T03:20:08;4.70;;;1.37;;
2748;SDS011;1382;52.142;11.618;2022-09-09T03:22:35;3.60;;;1.70;;
2748;SDS011;1382;52.142;11.618;2022-09-09T03:25:03;2.70;;;1.60;;
2748;SDS011;1382;52.142;11.618;2022-09-09T03:27:30;1.63;;;1.33;;
2748;SDS011;1382;52.142;11.618;2022-09-09T03:29:57;1.70;;;1.60;;
2748;SDS011;1382;52.142;11.618;2022-09-09T03:32:24;1.67;;;1.50;;
2748;SDS011;1382;52.142;11.618;2022-09-09T03:34:51;3.73;;;1.80;;
2748;SDS011;1382;52.142;11.618;2022-09-09T03:37:19;3.27;;;1.97;;
2748;SDS011;1382;52.142;11.618;2022-09-09T03:39:46;3.47;;;1.90;;
2748;SDS011;1382;52.142;11.618;2022-09-09T03:42:13;3.67;;;1.87;;
2748;SDS011;1382;52.142;11.618;2022-09-09T03:44:41;4.63;;;1.80;;
2748;SDS011;1382;52.142;11.618;2022-09-09T03:47:08;3.67;;;2.03;;
2748;SDS011;1382;52.142;11.618;2022-09-09T03:49:34;2.23;;;1.70;;
2748;SDS011;1382;52.142;11.618;2022-09-09T03:52:01;5.53;;;2.53;;
2748;SDS011;1382;52.142;11.618;2022-09-09T03:54:29;1.80;;;1.70;;
2748;SDS011;1382;52.142;11.618;2022-09-09T03:56:56;6.93;;;2.00;;
2748;SDS011;1382;52.142;11.618;2022-09-09T03:59:23;5.13;;;1.93;;
2748;SDS011;1382;52.142;11.618;2022-09-09T04:01:50;2.80;;;2.17;;
2748;SDS011;1382;52.142;11.618;2022-09-09T04:04:16;3.87;;;1.60;;
2748;SDS011;1382;52.142;11.618;2022-09-09T04:06:43;2.53;;;2.20;;
2748;SDS011;1382;52.142;11.618;2022-09-09T04:09:10;3.10;;;2.00;;
2748;SDS011;1382;52.142;11.618;2022-09-09T04:11:38;2.87;;;1.93;;
2748;SDS011;1382;52.142;11.618;2022-09-09T04:14:05;2.93;;;2.10;;
2748;SDS011;1382;52.142;11.618;2022-09-09T04:16:31;5.30;;;1.93;;
2748;SDS011;1382;52.142;11.618;2022-09-09T04:18:58;3.07;;;1.97;;
2748;SDS011;1382;52.142;11.618;2022-09-09T04:21:25;2.27;;;1.87;;
2748;SDS011;1382;52.142;11.618;2022-09-09T04:23:52;3.77;;;1.87;;
2748;SDS011;1382;52.142;11.618;2022-09-09T04:26:19;6.13;;;3.27;;
2748;SDS011;1382;52.142;11.618;2022-09-09T04:28:47;4.53;;;2.00;;
2748;SDS011;1382;52.142;11.618;2022-09-09T04:31:15;5.37;;;1.73;;
2748;SDS011;1382;52.142;11.618;2022-09-09T04:33:43;7.10;;;2.03;;
2748;SDS011;1382;52.142;11.618;2022-09-09T04:36:10;2.70;;;1.90;;
2748;SDS011;1382;52.142;11.618;2022-09-09T04:38:37;4.57;;;1.87;;
2748;SDS011;1382;52.142;11.618;2022-09-09T04:41:04;5.07;;;2.83;;
2748;SDS011;1382;52.142;11.618;2022-09-09T04:43:31;3.13;;;2.30;;
2748;SDS011;1382;52.142;11.618;2022-09-09T04:45:59;5.77;;;2.00;;
2748;SDS011;1382;52.142;11.618;2022-09-09T04:48:26;7.00;;;2.47;;
2748;SDS011;1382;52.142;11.618;2022-09-09T04:50:53;13.40;;;3.10;;
2748;SDS011;1382;52.142;11.618;2022-09-09T04:53:21;4.33;;;1.77;;
2748;SDS011;1382;52.142;11.618;2022-09-09T04:55:48;4.50;;;2.20;;
2748;SDS011;1382;52.142;11.618;2022-09-09T04:58:15;3.80;;;2.10;;
2748;SDS011;1382;52.142;11.618;2022-09-09T05:00:42;2.00;;;1.50;;
2748;SDS011;1382;52.142;11.618;2022-09-09T05:03:10;4.40;;;2.27;;
2748;SDS011;1382;52.142;11.618;2022-09-09T05:05:37;3.33;;;2.20;;
2748;SDS011;1382;52.142;11.618;2022-09-09T05:08:04;5.83;;;2.40;;
2748;SDS011;1382;52.142;11.618;2022-09-09T05:10:32;5.27;;;2.23;;
2748;SDS011;1382;52.142;11.618;2022-09-09T05:13:00;8.93;;;2.33;;
2748;SDS011;1382;52.142;11.618;2022-09-09T05:15:26;5.90;;;2.53;;
2748;SDS011;1382;52.142;11.618;2022-09-09T05:17:56;5.10;;;2.37;;
2748;SDS011;1382;52.142;11.618;2022-09-09T05:20:24;4.43;;;2.60;;
2748;SDS011;1382;52.142;11.618;2022-09-09T05:22:52;6.10;;;2.93;;
2748;SDS011;1382;52.142;11.618;2022-09-09T05:25:19;8.13;;;2.70;;
2748;SDS011;1382;52.142;11.618;2022-09-09T05:27:46;3.43;;;1.97;;
2748;SDS011;1382;52.142;11.618;2022-09-09T05:30:12;4.20;;;2.10;;
2748;SDS011;1382;52.142;11.618;2022-09-09T05:32:39;2.80;;;2.43;;
2748;SDS011;1382;52.142;11.618;2022-09-09T05:35:06;3.83;;;2.77;;
2748;SDS011;1382;52.142;11.618;2022-09-09T05:37:34;4.83;;;2.33;;
2748;SDS011;1382;52.142;11.618;2022-09-09T05:40:01;5.63;;;2.07;;
2748;SDS011;1382;52.142;11.618;2022-09-09T05:42:29;3.90;;;2.20;;
2748;SDS011;1382;52.142;11.618;2022-09-09T05:44:56;3.20;;;2.30;;
2748;SDS011;1382;52.142;11.618;2022-09-09T05:47:23;2.70;;;1.83;;
2748;SDS011;1382;52.142;11.618;2022-09-09T05:49:50;3.27;;;1.63;;
2748;SDS011;1382;52.142;11.618;2022-09-09T05:52:16;2.70;;;1.30;;
2748;SDS011;1382;52.142;11.618;2022-09-09T05:54:44;6.13;;;2.43;;
2748;SDS011;1382;52.142;11.618;2022-09-09T05:57:11;2.33;;;1.60;;
2748;SDS011;1382;52.142;11.618;2022-09-09T05:59:38;4.47;;;1.70;;
2748;SDS011;1382;52.142;11.618;2022-09-09T06:02:05;4.00;;;1.70;;
2748;SDS011;1382;52.142;11.618;2022-09-09T06:04:31;5.50;;;2.50;;
2748;SDS011;1382;52.142;11.618;2022-09-09T06:06:58;5.23;;;1.97;;
2748;SDS011;1382;52.142;11.618;2022-09-09T06:09:25;3.30;;;2.30;;
2748;SDS011;1382;52.142;11.618;2022-09-09T06:11:53;5.40;;;3.60;;
2748;SDS011;1382;52.142;11.618;2022-09-09T06:14:20;7.20;;;2.50;;
2748;SDS011;1382;52.142;11.618;2022-09-09T06:16:46;4.50;;;2.67;;
2748;SDS011;1382;52.142;11.618;2022-09-09T06:19:13;3.80;;;2.50;;
2748;SDS011;1382;52.142;11.618;2022-09-09T06:21:40;4.60;;;2.23;;
2748;SDS011;1382;52.142;11.618;2022-09-09T06:24:07;2.43;;;1.77;;
2748;SDS011;1382;52.142;11.618;2022-09-09T06:26:34;3.80;;;3.17;;
2748;SDS011;1382;52.142;11.618;2022-09-09T06:29:03;7.60;;;3.23;;
2748;SDS011;1382;52.142;11.618;2022-09-09T06:31:31;3.87;;;2.70;;
2748;SDS011;1382;52.142;11.618;2022-09-09T06:33:59;4.30;;;3.30;;
2748;SDS011;1382;52.142;11.618;2022-09-09T06:36:27;9.10;;;3.77;;
2748;SDS011;1382;52.142;11.618;2022-09-09T06:38:55;5.53;;;2.90;;
2748;SDS011;1382;52.142;11.618;2022-09-09T06:41:23;4.40;;;3.03;;
2748;SDS011;1382;52.142;11.618;2022-09-09T06:43:51;5.47;;;3.30;;
2748;SDS011;1382;52.142;11.618;2022-09-09T06:46:20;4.77;;;3.80;;
2748;SDS011;1382;52.142;11.618;2022-09-09T06:48:48;4.40;;;3.17;;
2748;SDS011;1382;52.142;11.618;2022-09-09T06:51:16;5.70;;;3.30;;
2748;SDS011;1382;52.142;11.618;2022-09-09T06:53:44;4.87;;;4.30;;
2748;SDS011;1382;52.142;11.618;2022-09-09T06:56:19;8.37;;;4.27;;
2748;SDS011;1382;52.142;11.618;2022-09-09T06:58:48;4.90;;;3.93;;
2748;SDS011;1382;52.142;11.618;2022-09-09T07:01:16;11.30;;;3.40;;
2748;SDS011;1382;52.142;11.618;2022-09-09T07:03:47;4.00;;;3.30;;
2748;SDS011;1382;52.142;11.618;2022-09-09T07:06:15;6.13;;;2.90;;
2748;SDS011;1382;52.142;11.618;2022-09-09T07:08:47;3.77;;;3.00;;
2748;SDS011;1382;52.142;11.618;2022-09-09T07:11:22;5.03;;;2.47;;
2748;SDS011;1382;52.142;11.618;2022-09-09T07:13:50;10.03;;;3.30;;
2748;SDS011;1382;52.142;11.618;2022-09-09T07:16:17;6.73;;;2.63;;
2748;SDS011;1382;52.142;11.618;2022-09-09T07:18:47;3.80;;;3.03;;
2748;SDS011;1382;52.142;11.618;2022-09-09T07:21:14;8.10;;;2.60;;
2748;SDS011;1382;52.142;11.618;2022-09-09T07:23:41;3.83;;;2.43;;
2748;SDS011;1382;52.142;11.618;2022-09-09T07:26:08;5.27;;;2.80;;
2748;SDS011;1382;52.142;11.618;2022-09-09T07:28:36;6.13;;;2.83;;
2748;SDS011;1382;52.142;11.618;2022-09-09T07:31:03;4.17;;;1.93;;
2748;SDS011;1382;52.142;11.618;2022-09-09T07:33:33;5.70;;;1.97;;
2748;SDS011;1382;52.142;11.618;2022-09-09T07:36:02;4.20;;;2.17;;
2748;SDS011;1382;52.142;11.618;2022-09-09T07:38:30;4.00;;;1.90;;
2748;SDS011;1382;52.142;11.618;2022-09-09T07:41:02;3.33;;;2.37;;
2748;SDS011;1382;52.142;11.618;2022-09-09T07:43:30;5.67;;;2.60;;
2748;SDS011;1382;52.142;11.618;2022-09-09T07:45:57;7.00;;;2.33;;
2748;SDS011;1382;52.142;11.618;2022-09-09T07:48:24;4.30;;;2.20;;
2748;SDS011;1382;52.142;11.618;2022-09-09T07:50:52;5.20;;;2.20;;
2748;SDS011;1382;52.142;11.618;2022-09-09T07:53:19;9.43;;;2.73;;
2748;SDS011;1382;52.142;11.618;2022-09-09T07:55:45;4.53;;;2.40;;
2748;SDS011;1382;52.142;11.618;2022-09-09T07:58:12;4.43;;;1.60;;
2748;SDS011;1382;52.142;11.618;2022-09-09T08:00:39;4.40;;;1.77;;
2748;SDS011;1382;52.142;11.618;2022-09-09T08:03:06;1.83;;;1.53;;
2748;SDS011;1382;52.142;11.618;2022-09-09T08:05:32;9.57;;;2.13;;
2748;SDS011;1382;52.142;11.618;2022-09-09T08:08:01;5.13;;;2.30;;
2748;SDS011;1382;52.142;11.618;2022-09-09T08:10:28;3.63;;;1.90;;
2748;SDS011;1382;52.142;11.618;2022-09-09T08:12:55;4.37;;;2.00;;
2748;SDS011;1382;52.142;11.618;2022-09-09T08:15:42;4.17;;;1.90;;
2748;SDS011;1382;52.142;11.618;2022-09-09T08:18:08;5.23;;;1.80;;
2748;SDS011;1382;52.142;11.618;2022-09-09T08:20:35;6.43;;;2.60;;
2748;SDS011;1382;52.142;11.618;2022-09-09T08:23:04;2.80;;;1.67;;
2748;SDS011;1382;52.142;11.618;2022-09-09T08:25:30;3.67;;;1.60;;
2748;SDS011;1382;52.142;11.618;2022-09-09T08:27:57;7.63;;;2.03;;
2748;SDS011;1382;52.142;11.618;2022-09-09T08:30:24;12.63;;;2.57;;
2748;SDS011;1382;52.142;11.618;2022-09-09T08:32:51;6.70;;;2.17;;
2748;SDS011;1382;52.142;11.618;2022-09-09T08:35:19;2.73;;;1.47;;
2748;SDS011;1382;52.142;11.618;2022-09-09T08:37:45;6.90;;;2.23;;
2748;SDS011;1382;52.142;11.618;2022-09-09T08:40:20;1.93;;;1.40;;
2748;SDS011;1382;52.142;11.618;2022-09-09T08:42:53;3.40;;;1.90;;
2748;SDS011;1382;52.142;11.618;2022-09-09T08:45:24;4.17;;;1.80;;
2748;SDS011;1382;52.142;11.618;2022-09-09T08:50:52;5.73;;;1.43;;
2748;SDS011;1382;52.142;11.618;2022-09-09T08:53:19;3.20;;;1.50;;
2748;SDS011;1382;52.142;11.618;2022-09-09T08:55:50;3.00;;;1.40;;
2748;SDS011;1382;52.142;11.618;2022-09-09T08:58:19;3.23;;;1.20;;
2748;SDS011;1382;52.142;11.618;2022-09-09T09:00:50;6.00;;;1.57;;
2748;SDS011;1382;52.142;11.618;2022-09-09T09:03:43;3.90;;;1.43;;
2748;SDS011;1382;52.142;11.618;2022-09-09T09:06:23;6.67;;;1.10;;
2748;SDS011;1382;52.142;11.618;2022-09-09T09:08:59;4.63;;;1.20;;
2748;SDS011;1382;52.142;11.618;2022-09-09T09:11:36;2.07;;;1.17;;
2748;SDS011;1382;52.142;11.618;2022-09-09T09:14:07;6.13;;;1.20;;
2748;SDS011;1382;52.142;11.618;2022-09-09T09:16:38;3.13;;;1.30;;
2748;SDS011;1382;52.142;11.618;2022-09-09T09:19:12;2.10;;;1.30;;
2748;SDS011;1382;52.142;11.618;2022-09-09T09:21:41;11.83;;;1.67;;
2748;SDS011;1382;52.142;11.618;2022-09-09T09:24:12;3.67;;;1.07;;
2748;SDS011;1382;52.142;11.618;2022-09-09T09:26:48;3.97;;;1.30;;
2748;SDS011;1382;52.142;11.618;2022-09-09T09:29:17;4.87;;;1.83;;
2748;SDS011;1382;52.142;11.618;2022-09-09T09:31:45;3.17;;;1.30;;
2748;SDS011;1382;52.142;11.618;2022-09-09T09:34:19;2.70;;;1.40;;
2748;SDS011;1382;52.142;11.618;2022-09-09T09:36:46;4.33;;;1.40;;
2748;SDS011;1382;52.142;11.618;2022-09-09T09:39:23;4.70;;;1.20;;
2748;SDS011;1382;52.142;11.618;2022-09-09T09:42:13;4.83;;;1.67;;
2748;SDS011;1382;52.142;11.618;2022-09-09T09:44:46;2.47;;;1.23;;
2748;SDS011;1382;52.142;11.618;2022-09-09T09:47:14;6.17;;;1.37;;
2748;SDS011;1382;52.142;11.618;2022-09-09T09:49:50;7.60;;;1.97;;
2748;SDS011;1382;52.142;11.618;2022-09-09T09:52:20;3.73;;;1.30;;
2748;SDS011;1382;52.142;11.618;2022-09-09T09:54:49;3.47;;;1.60;;
2748;SDS011;1382;52.142;11.618;2022-09-09T09:57:18;6.07;;;1.47;;
2748;SDS011;1382;52.142;11.618;2022-09-09T09:59:59;2.17;;;1.43;;
2748;SDS011;1382;52.142;11.618;2022-09-09T10:02:31;3.13;;;1.40;;
2748;SDS011;1382;52.142;11.618;2022-09-09T10:05:04;7.43;;;1.47;;
2748;SDS011;1382;52.142;11.618;2022-09-09T10:07:32;5.70;;;1.13;;
2748;SDS011;1382;52.142;11.618;2022-09-09T10:09:59;5.17;;;1.53;;
2748;SDS011;1382;52.142;11.618;2022-09-09T10:12:30;4.47;;;1.73;;
2748;SDS011;1382;52.142;11.618;2022-09-09T10:15:07;2.33;;;1.43;;
2748;SDS011;1382;52.142;11.618;2022-09-09T10:17:53;4.40;;;1.47;;
2748;SDS011;1382;52.142;11.618;2022-09-09T10:20:29;2.20;;;1.20;;
2748;SDS011;1382;52.142;11.618;2022-09-09T10:23:04;6.90;;;2.00;;
2748;SDS011;1382;52.142;11.618;2022-09-09T10:25:44;7.87;;;1.20;;
2748;SDS011;1382;52.142;11.618;2022-09-09T10:31:22;4.07;;;1.77;;
2748;SDS011;1382;52.142;11.618;2022-09-09T10:33:59;2.30;;;1.17;;
2748;SDS011;1382;52.142;11.618;2022-09-09T10:36:36;3.27;;;1.57;;
2748;SDS011;1382;52.142;11.618;2022-09-09T10:39:13;6.50;;;1.13;;
2748;SDS011;1382;52.142;11.618;2022-09-09T10:41:53;2.90;;;1.20;;
2748;SDS011;1382;52.142;11.618;2022-09-09T10:44:35;3.20;;;1.10;;
2748;SDS011;1382;52.142;11.618;2022-09-09T10:47:15;3.37;;;1.20;;
2748;SDS011;1382;52.142;11.618;2022-09-09T10:50:08;3.80;;;1.20;;
2748;SDS011;1382;52.142;11.618;2022-09-09T10:52:46;5.70;;;1.20;;
2748;SDS011;1382;52.142;11.618;2022-09-09T10:55:23;4.47;;;1.60;;
2748;SDS011;1382;52.142;11.618;2022-09-09T10:57:55;2.30;;;1.20;;
2748;SDS011;1382;52.142;11.618;2022-09-09T11:00:27;4.37;;;1.23;;
2748;SDS011;1382;52.142;11.618;2022-09-09T11:03:03;8.30;;;1.93;;
2748;SDS011;1382;52.142;11.618;2022-09-09T11:05:31;2.80;;;1.47;;
2748;SDS011;1382;52.142;11.618;2022-09-09T11:08:04;4.93;;;1.40;;
2748;SDS011;1382;52.142;11.618;2022-09-09T11:10:37;2.90;;;1.30;;
2748;SDS011;1382;52.142;11.618;2022-09-09T11:13:09;3.00;;;1.50;;
2748;SDS011;1382;52.142;11.618;2022-09-09T11:15:43;5.70;;;1.13;;
2748;SDS011;1382;52.142;11.618;2022-09-09T11:18:16;4.53;;;1.47;;
2748;SDS011;1382;52.142;11.618;2022-09-09T11:20:45;3.40;;;1.40;;
2748;SDS011;1382;52.142;11.618;2022-09-09T11:23:15;2.10;;;1.17;;
2748;SDS011;1382;52.142;11.618;2022-09-09T11:25:48;2.40;;;1.27;;
2748;SDS011;1382;52.142;11.618;2022-09-09T11:28:28;8.87;;;2.00;;
2748;SDS011;1382;52.142;11.618;2022-09-09T11:31:11;3.37;;;1.37;;
2748;SDS011;1382;52.142;11.618;2022-09-09T11:33:57;4.30;;;1.30;;
2748;SDS011;1382;52.142;11.618;2022-09-09T11:36:51;3.87;;;1.40;;
2748;SDS011;1382;52.142;11.618;2022-09-09T11:39:35;5.87;;;1.10;;
2748;SDS011;1382;52.142;11.618;2022-09-09T11:42:15;3.03;;;1.63;;
2748;SDS011;1382;52.142;11.618;2022-09-09T11:44:49;2.07;;;1.20;;
2748;SDS011;1382;52.142;11.618;2022-09-09T11:47:20;5.27;;;1.10;;
2748;SDS011;1382;52.142;11.618;2022-09-09T11:49:49;5.50;;;1.37;;
2748;SDS011;1382;52.142;11.618;2022-09-09T11:52:20;10.13;;;1.57;;
2748;SDS011;1382;52.142;11.618;2022-09-09T11:54:49;5.03;;;1.47;;
2748;SDS011;1382;52.142;11.618;2022-09-09T11:57:23;4.33;;;1.20;;
2748;SDS011;1382;52.142;11.618;2022-09-09T11:59:52;2.10;;;1.00;;
2748;SDS011;1382;52.142;11.618;2022-09-09T12:02:22;1.53;;;0.83;;
2748;SDS011;1382;52.142;11.618;2022-09-09T12:04:54;5.53;;;2.60;;
2748;SDS011;1382;52.142;11.618;2022-09-09T12:07:27;2.70;;;1.27;;
2748;SDS011;1382;52.142;11.618;2022-09-09T12:10:01;3.20;;;1.43;;
2748;SDS011;1382;52.142;11.618;2022-09-09T12:12:32;1.90;;;1.20;;
2748;SDS011;1382;52.142;11.618;2022-09-09T12:15:16;3.07;;;1.10;;
2748;SDS011;1382;52.142;11.618;2022-09-09T12:17:47;3.50;;;1.00;;
2748;SDS011;1382;52.142;11.618;2022-09-09T12:20:16;2.20;;;0.90;;
2748;SDS011;1382;52.142;11.618;2022-09-09T12:22:49;3.13;;;1.20;;
2748;SDS011;1382;52.142;11.618;2022-09-09T12:25:26;3.00;;;1.50;;
2748;SDS011;1382;52.142;11.618;2022-09-09T12:28:02;2.90;;;1.50;;
2748;SDS011;1382;52.142;11.618;2022-09-09T12:30:34;2.63;;;0.90;;
2748;SDS011;1382;52.142;11.618;2022-09-09T12:33:10;7.10;;;1.20;;
2748;SDS011;1382;52.142;11.618;2022-09-09T12:35:37;2.63;;;1.13;;
2748;SDS011;1382;52.142;11.618;2022-09-09T12:38:07;2.90;;;1.30;;
2748;SDS011;1382;52.142;11.618;2022-09-09T12:40:40;5.00;;;1.60;;
2748;SDS011;1382;52.142;11.618;2022-09-09T12:43:16;1.67;;;1.03;;
2748;SDS011;1382;52.142;11.618;2022-09-09T12:45:44;6.87;;;1.50;;
2748;SDS011;1382;52.142;11.618;2022-09-09T12:48:12;3.00;;;1.30;;
2748;SDS011;1382;52.142;11.618;2022-09-09T12:50:43;1.40;;;0.93;;
2748;SDS011;1382;52.142;11.618;2022-09-09T12:53:12;3.10;;;1.20;;
2748;SDS011;1382;52.142;11.618;2022-09-09T12:55:53;3.80;;;1.70;;
2748;SDS011;1382;52.142;11.618;2022-09-09T12:58:22;6.23;;;1.20;;
2748;SDS011;1382;52.142;11.618;2022-09-09T13:00:50;4.00;;;1.60;;
2748;SDS011;1382;52.142;11.618;2022-09-09T13:03:20;4.83;;;1.03;;
2748;SDS011;1382;52.142;11.618;2022-09-09T13:05:47;1.63;;;0.93;;
2748;SDS011;1382;52.142;11.618;2022-09-09T13:08:15;5.80;;;1.10;;
2748;SDS011;1382;52.142;11.618;2022-09-09T13:10:44;3.63;;;1.13;;
2748;SDS011;1382;52.142;11.618;2022-09-09T13:13:21;2.67;;;1.20;;
2748;SDS011;1382;52.142;11.618;2022-09-09T13:15:49;5.97;;;1.43;;
2748;SDS011;1382;52.142;11.618;2022-09-09T13:18:21;2.50;;;1.40;;
2748;SDS011;1382;52.142;11.618;2022-09-09T13:20:50;1.67;;;1.07;;
2748;SDS011;1382;52.142;11.618;2022-09-09T13:23:18;3.00;;;1.27;;
2748;SDS011;1382;52.142;11.618;2022-09-09T13:25:53;4.47;;;1.43;;
2748;SDS011;1382;52.142;11.618;2022-09-09T13:28:21;4.40;;;1.20;;
2748;SDS011;1382;52.142;11.618;2022-09-09T13:30:56;3.10;;;1.00;;
2748;SDS011;1382;52.142;11.618;2022-09-09T13:33:30;2.70;;;1.40;;
2748;SDS011;1382;52.142;11.618;2022-09-09T13:35:59;3.60;;;1.30;;
2748;SDS011;1382;52.142;11.618;2022-09-09T13:38:29;2.60;;;1.07;;
2748;SDS011;1382;52.142;11.618;2022-09-09T13:40:59;4.70;;;0.97;;
2748;SDS011;1382;52.142;11.618;2022-09-09T13:43:27;8.13;;;1.47;;
2748;SDS011;1382;52.142;11.618;2022-09-09T13:45:56;4.07;;;1.23;;
2748;SDS011;1382;52.142;11.618;2022-09-09T13:48:24;5.97;;;1.30;;
2748;SDS011;1382;52.142;11.618;2022-09-09T13:51:00;3.77;;;1.23;;
2748;SDS011;1382;52.142;11.618;2022-09-09T13:53:28;7.13;;;1.07;;
2748;SDS011;1382;52.142;11.618;2022-09-09T13:55:55;3.20;;;0.80;;
2748;SDS011;1382;52.142;11.618;2022-09-09T13:58:22;5.33;;;1.50;;
2748;SDS011;1382;52.142;11.618;2022-09-09T14:00:49;5.17;;;2.20;;
2748;SDS011;1382;52.142;11.618;2022-09-09T14:03:15;7.63;;;1.33;;
2748;SDS011;1382;52.142;11.618;2022-09-09T14:05:43;5.97;;;1.43;;
2748;SDS011;1382;52.142;11.618;2022-09-09T14:08:14;4.80;;;1.23;;
2748;SDS011;1382;52.142;11.618;2022-09-09T14:10:46;5.90;;;1.23;;
2748;SDS011;1382;52.142;11.618;2022-09-09T14:13:12;10.37;;;1.67;;
2748;SDS011;1382;52.142;11.618;2022-09-09T14:15:39;9.00;;;1.93;;
2748;SDS011;1382;52.142;11.618;2022-09-09T14:18:08;6.77;;;1.60;;
2748;SDS011;1382;52.142;11.618;2022-09-09T14:20:37;5.20;;;1.47;;
2748;SDS011;1382;52.142;11.618;2022-09-09T14:23:04;2.40;;;1.07;;
2748;SDS011;1382;52.142;11.618;2022-09-09T14:25:32;3.77;;;1.63;;
2748;SDS011;1382;52.142;11.618;2022-09-09T14:27:59;2.83;;;0.97;;
2748;SDS011;1382;52.142;11.618;2022-09-09T14:30:26;4.73;;;1.23;;
2748;SDS011;1382;52.142;11.618;2022-09-09T14:32:53;10.50;;;1.90;;
2748;SDS011;1382;52.142;11.618;2022-09-09T14:35:19;3.27;;;1.20;;
2748;SDS011;1382;52.142;11.618;2022-09-09T14:37:46;1.87;;;1.00;;
2748;SDS011;1382;52.142;11.618;2022-09-09T14:40:13;3.53;;;1.30;;
2748;SDS011;1382;52.142;11.618;2022-09-09T14:42:41;1.80;;;1.13;;
2748;SDS011;1382;52.142;11.618;2022-09-09T14:45:08;2.80;;;1.30;;
2748;SDS011;1382;52.142;11.618;2022-09-09T14:47:36;3.23;;;1.30;;
2748;SDS011;1382;52.142;11.618;2022-09-09T14:50:03;3.90;;;1.20;;
2748;SDS011;1382;52.142;11.618;2022-09-09T14:52:31;1.53;;;1.00;;
2748;SDS011;1382;52.142;11.618;2022-09-09T14:54:58;2.70;;;1.40;;
2748;SDS011;1382;52.142;11.618;2022-09-09T14:57:25;4.87;;;1.30;;
2748;SDS011;1382;52.142;11.618;2022-09-09T14:59:53;3.00;;;1.00;;
2748;SDS011;1382;52.142;11.618;2022-09-09T15:02:20;1.97;;;1.30;;
2748;SDS011;1382;52.142;11.618;2022-09-09T15:04:47;2.63;;;0.90;;
2748;SDS011;1382;52.142;11.618;2022-09-09T15:07:14;2.50;;;0.80;;
2748;SDS011;1382;52.142;11.618;2022-09-09T15:09:41;3.10;;;1.13;;
2748;SDS011;1382;52.142;11.618;2022-09-09T15:12:08;1.70;;;1.00;;
2748;SDS011;1382;52.142;11.618;2022-09-09T15:14:35;2.93;;;1.77;;
2748;SDS011;1382;52.142;11.618;2022-09-09T15:17:03;1.37;;;0.80;;
2748;SDS011;1382;52.142;11.618;2022-09-09T15:19:30;4.13;;;1.70;;
2748;SDS011;1382;52.142;11.618;2022-09-09T15:21:57;2.30;;;1.13;;
2748;SDS011;1382;52.142;11.618;2022-09-09T15:24:23;1.87;;;0.90;;
2748;SDS011;1382;52.142;11.618;2022-09-09T15:26:50;1.67;;;0.60;;
2748;SDS011;1382;52.142;11.618;2022-09-09T15:29:17;3.87;;;1.10;;
2748;SDS011;1382;52.142;11.618;2022-09-09T15:31:44;3.07;;;0.93;;